createdAt,value
2023-01-08T00:00:17.207Z,4.95
2023-01-08T00:03:05.257Z,4.94
2023-01-08T00:05:33.211Z,4.95
2023-01-08T00:08:01.302Z,4.96
2023-01-08T00:10:29.442Z,4.98
2023-01-08T00:12:57.334Z,4.97
2023-01-08T00:15:25.436Z,4.99
2023-01-08T00:17:53.914Z,4.96
2023-01-08T00:20:21.867Z,4.94
2023-01-08T00:22:50.424Z,4.91
2023-01-08T00:25:19.058Z,4.88
2023-01-08T00:27:47.056Z,4.85
2023-01-08T00:30:14.992Z,4.84
2023-01-08T00:32:43.696Z,4.83
2023-01-08T00:35:11.549Z,4.80
2023-01-08T00:37:40.136Z,4.76
2023-01-08T00:40:08.756Z,4.73
2023-01-08T00:42:36.566Z,4.70
2023-01-08T00:45:05.182Z,4.69
2023-01-08T00:47:33.534Z,4.68
2023-01-08T00:50:01.431Z,4.65
2023-01-08T00:52:29.576Z,4.64
2023-01-08T00:54:58.122Z,4.61
2023-01-08T00:57:26.476Z,4.60
2023-01-08T00:59:55.239Z,4.60
2023-01-08T01:02:23.619Z,4.56
2023-01-08T01:04:54.543Z,4.52
2023-01-08T01:07:22.590Z,4.46
2023-01-08T01:09:50.967Z,4.43
2023-01-08T01:12:19.234Z,4.38
2023-01-08T01:14:47.261Z,4.38
2023-01-08T01:17:15.296Z,4.37
2023-01-08T01:19:43.791Z,4.36
2023-01-08T01:22:12.013Z,4.34
2023-01-08T01:24:40.068Z,4.29
2023-01-08T01:27:07.944Z,4.25
2023-01-08T01:29:35.889Z,4.21
2023-01-08T01:32:04.207Z,4.16
2023-01-08T01:34:32.088Z,4.15
2023-01-08T01:37:00.638Z,4.16
2023-01-08T01:39:28.610Z,4.18
2023-01-08T01:41:56.439Z,4.18
2023-01-08T01:44:46.618Z,4.18
2023-01-08T01:47:38.424Z,4.16
2023-01-08T01:50:09.583Z,4.11
2023-01-08T01:52:42.709Z,4.05
2023-01-08T01:55:15.138Z,4.00
2023-01-08T01:57:51.249Z,3.94
2023-01-08T02:00:20.440Z,3.92
2023-01-08T02:02:48.805Z,3.90
2023-01-08T02:05:18.096Z,3.92
2023-01-08T02:07:52.831Z,3.91
2023-01-08T02:10:27.718Z,3.91
2023-01-08T02:12:59.376Z,3.90
2023-01-08T02:15:32.178Z,3.87
2023-01-08T02:18:03.832Z,3.82
2023-01-08T02:20:36.441Z,3.79
2023-01-08T02:23:34.484Z,3.79
2023-01-08T02:26:34.482Z,3.78
2023-01-08T02:29:13.189Z,3.79
2023-01-08T02:31:42.326Z,3.80
2023-01-08T02:34:11.840Z,3.78
2023-01-08T02:36:46.071Z,3.75
2023-01-08T02:39:42.230Z,3.72
2023-01-08T02:42:24.311Z,3.64
2023-01-08T02:44:55.455Z,3.57
2023-01-08T02:47:34.926Z,3.53
2023-01-08T02:50:15.006Z,3.56
2023-01-08T02:52:51.057Z,3.56
2023-01-08T02:55:21.215Z,3.55
2023-01-08T02:57:49.259Z,3.54
2023-01-08T03:00:17.186Z,3.52
2023-01-08T03:02:45.204Z,3.51
2023-01-08T03:05:23.718Z,3.49
2023-01-08T03:07:51.737Z,3.43
2023-01-08T03:10:22.912Z,3.38
2023-01-08T03:12:56.148Z,3.36
2023-01-08T03:15:51.770Z,3.34
2023-01-08T03:18:24.825Z,3.39
2023-01-08T03:20:52.718Z,3.43
2023-01-08T03:23:22.309Z,3.44
2023-01-08T03:25:50.152Z,3.43
2023-01-08T03:28:30.548Z,3.41
2023-01-08T03:30:59.380Z,3.39
2023-01-08T03:33:28.108Z,3.35
2023-01-08T03:36:00.108Z,3.32
2023-01-08T03:38:31.320Z,3.30
2023-01-08T03:41:05.645Z,3.32
2023-01-08T03:43:33.572Z,3.35
2023-01-08T03:46:09.761Z,3.35
2023-01-08T03:48:38.836Z,3.34
2023-01-08T03:51:10.407Z,3.32
2023-01-08T03:53:38.368Z,3.30
2023-01-08T03:56:06.830Z,3.26
2023-01-08T03:58:34.804Z,3.21
2023-01-08T04:01:02.598Z,3.20
2023-01-08T04:03:30.545Z,3.18
2023-01-08T04:06:01.292Z,3.19
2023-01-08T04:08:29.266Z,3.21
2023-01-08T04:10:57.271Z,3.25
2023-01-08T04:13:25.401Z,3.26
2023-01-08T04:15:53.539Z,3.25
2023-01-08T04:18:21.746Z,3.23
2023-01-08T04:20:49.542Z,3.21
2023-01-08T04:23:20.613Z,3.19
2023-01-08T04:25:48.481Z,3.20
2023-01-08T04:28:16.204Z,3.19
2023-01-08T04:30:44.556Z,3.22
2023-01-08T04:33:12.459Z,3.26
2023-01-08T04:35:40.299Z,3.27
2023-01-08T04:38:09.394Z,3.24
2023-01-08T04:40:38.354Z,3.24
2023-01-08T04:43:06.188Z,3.23
2023-01-08T04:45:34.317Z,3.23
2023-01-08T04:48:02.280Z,3.24
2023-01-08T04:50:30.073Z,3.26
2023-01-08T04:52:58.881Z,3.29
2023-01-08T04:55:27.110Z,3.29
2023-01-08T04:57:54.887Z,3.26
2023-01-08T05:00:22.689Z,3.24
2023-01-08T05:02:51.055Z,3.24
2023-01-08T05:05:19.016Z,3.22
2023-01-08T05:07:46.845Z,3.23
2023-01-08T05:10:15.137Z,3.24
2023-01-08T05:12:43.001Z,3.26
2023-01-08T05:15:11.328Z,3.29
2023-01-08T05:17:39.358Z,3.30
2023-01-08T05:20:08.410Z,3.31
2023-01-08T05:22:36.168Z,3.28
2023-01-08T05:25:04.372Z,3.26
2023-01-08T05:27:32.275Z,3.25
2023-01-08T05:30:00.089Z,3.25
2023-01-08T05:32:28.193Z,3.27
2023-01-08T05:34:55.902Z,3.29
2023-01-08T05:37:23.740Z,3.30
2023-01-08T05:39:51.588Z,3.29
2023-01-08T05:42:19.431Z,3.29
2023-01-08T05:44:47.225Z,3.27
2023-01-08T05:47:15.341Z,3.23
2023-01-08T05:49:43.180Z,3.19
2023-01-08T05:52:10.944Z,3.17
2023-01-08T05:54:38.917Z,3.18
2023-01-08T05:57:06.895Z,3.20
2023-01-08T05:59:34.701Z,3.21
2023-01-08T06:02:04.841Z,3.22
2023-01-08T06:04:32.826Z,3.22
2023-01-08T06:07:00.707Z,3.21
2023-01-08T06:09:28.513Z,3.21
2023-01-08T06:11:58.346Z,3.18
2023-01-08T06:14:26.160Z,3.14
2023-01-08T06:16:54.530Z,3.13
2023-01-08T06:19:25.638Z,3.15
2023-01-08T06:21:53.397Z,3.16
2023-01-08T06:24:21.467Z,3.17
2023-01-08T06:26:49.443Z,3.15
2023-01-08T06:29:17.506Z,3.13
2023-01-08T06:31:45.560Z,3.12
2023-01-08T06:34:13.448Z,3.08
2023-01-08T06:36:41.337Z,3.07
2023-01-08T06:39:09.511Z,3.08
2023-01-08T06:41:37.360Z,3.09
2023-01-08T06:44:05.523Z,3.11
2023-01-08T06:46:38.583Z,3.12
2023-01-08T06:49:07.390Z,3.07
2023-01-08T06:51:36.373Z,3.05
2023-01-08T06:54:04.344Z,3.04
2023-01-08T06:56:35.676Z,3.00
2023-01-08T06:59:08.196Z,2.97
2023-01-08T07:01:36.301Z,2.96
2023-01-08T07:04:04.250Z,2.98
2023-01-08T07:06:32.278Z,3.01
2023-01-08T07:09:03.132Z,3.00
2023-01-08T07:11:30.992Z,3.00
2023-01-08T07:13:58.991Z,2.96
2023-01-08T07:16:26.973Z,2.93
2023-01-08T07:18:54.999Z,2.93
2023-01-08T07:21:23.660Z,2.90
2023-01-08T07:23:51.591Z,2.89
2023-01-08T07:26:19.446Z,2.91
2023-01-08T07:28:47.407Z,2.94
2023-01-08T07:31:15.437Z,2.98
2023-01-08T07:33:43.280Z,3.00
2023-01-08T07:36:11.324Z,2.98
2023-01-08T07:38:39.305Z,2.98
2023-01-08T07:41:07.123Z,2.97
2023-01-08T07:43:35.732Z,2.94
2023-01-08T07:46:03.954Z,2.92
2023-01-08T07:48:32.112Z,2.95
2023-01-08T07:51:04.390Z,2.98
2023-01-08T07:53:32.521Z,3.00
2023-01-08T07:56:01.392Z,3.01
2023-01-08T07:58:29.382Z,3.03
2023-01-08T08:00:59.260Z,3.04
2023-01-08T08:03:27.511Z,3.02
2023-01-08T08:05:55.499Z,3.01
2023-01-08T08:08:23.319Z,3.03
2023-01-08T08:10:51.161Z,3.08
2023-01-08T08:13:19.250Z,3.10
2023-01-08T08:15:47.363Z,3.18
2023-01-08T08:18:15.211Z,3.20
2023-01-08T08:20:43.288Z,3.23
2023-01-08T08:23:14.171Z,3.23
2023-01-08T08:25:42.901Z,3.23
2023-01-08T08:28:12.432Z,3.23
2023-01-08T08:30:42.511Z,3.26
2023-01-08T08:33:10.922Z,3.31
2023-01-08T08:35:38.920Z,3.38
2023-01-08T08:38:06.776Z,3.45
2023-01-08T08:40:34.635Z,3.49
2023-01-08T08:43:04.082Z,3.53
2023-01-08T08:45:31.963Z,3.56
2023-01-08T08:48:00.035Z,3.57
2023-01-08T08:50:28.084Z,3.60
2023-01-08T08:53:00.663Z,3.69
2023-01-08T08:55:29.008Z,3.80
2023-01-08T08:58:04.457Z,3.87
2023-01-08T09:00:32.929Z,3.94
2023-01-08T09:03:01.278Z,3.99
2023-01-08T09:05:30.448Z,4.04
2023-01-08T09:07:58.805Z,4.09
2023-01-08T09:10:26.880Z,4.20
2023-01-08T09:12:55.066Z,4.48
2023-01-08T09:15:23.328Z,4.84
2023-01-08T09:17:57.789Z,5.07
2023-01-08T09:20:27.036Z,5.52
2023-01-08T09:22:55.623Z,5.93
2023-01-08T09:25:23.661Z,6.11
2023-01-08T09:28:00.167Z,6.28
2023-01-08T09:30:28.864Z,6.28
2023-01-08T09:33:02.483Z,6.16
2023-01-08T09:35:34.234Z,6.07
2023-01-08T09:38:03.035Z,6.04
2023-01-08T09:40:44.412Z,6.03
2023-01-08T09:43:18.108Z,6.03
2023-01-08T09:45:50.279Z,6.03
2023-01-08T09:48:19.071Z,6.02
2023-01-08T09:50:48.124Z,6.01
2023-01-08T09:53:17.802Z,6.02
2023-01-08T09:56:08.266Z,6.05
2023-01-08T09:58:41.857Z,6.10
2023-01-08T10:01:13.671Z,6.14
2023-01-08T10:03:44.663Z,6.18
2023-01-08T10:06:14.617Z,6.19
2023-01-08T10:08:42.793Z,6.21
2023-01-08T10:11:12.161Z,6.24
2023-01-08T10:13:42.576Z,6.32
2023-01-08T10:16:22.135Z,6.41
2023-01-08T10:18:50.112Z,6.47
2023-01-08T10:21:18.536Z,6.50
2023-01-08T10:23:52.277Z,6.54
2023-01-08T10:26:47.915Z,6.58
2023-01-08T10:29:18.712Z,6.61
2023-01-08T10:31:54.983Z,6.67
2023-01-08T10:34:39.780Z,6.75
2023-01-08T10:37:29.616Z,6.80
2023-01-08T10:40:24.143Z,6.85
2023-01-08T10:42:52.957Z,6.89
2023-01-08T10:45:26.459Z,6.89
2023-01-08T10:48:16.820Z,6.92
2023-01-08T10:50:45.164Z,6.98
2023-01-08T10:53:28.745Z,7.03
2023-01-08T10:56:01.338Z,7.05
2023-01-08T10:58:29.669Z,7.12
2023-01-08T11:01:12.678Z,7.12
2023-01-08T11:03:41.173Z,7.12
2023-01-08T11:06:23.613Z,7.12
2023-01-08T11:08:57.591Z,7.13
2023-01-08T11:11:32.966Z,7.17
2023-01-08T11:14:29.002Z,7.23
2023-01-08T11:16:58.507Z,7.28
2023-01-08T11:19:30.626Z,7.33
2023-01-08T11:22:01.675Z,7.35
2023-01-08T11:24:30.786Z,7.35
2023-01-08T11:27:10.428Z,7.33
2023-01-08T11:29:46.021Z,7.35
2023-01-08T11:32:26.101Z,7.40
2023-01-08T11:34:54.040Z,7.45
2023-01-08T11:37:25.225Z,7.49
2023-01-08T11:39:53.712Z,7.51
2023-01-08T11:42:48.355Z,7.52
2023-01-08T11:45:27.441Z,7.52
2023-01-08T11:48:14.526Z,7.50
2023-01-08T11:50:59.974Z,7.48
2023-01-08T11:53:47.961Z,7.50
2023-01-08T11:56:40.633Z,7.55
2023-01-08T11:59:44.436Z,7.59
2023-01-08T12:02:34.478Z,7.63
2023-01-08T12:05:21.678Z,7.64
2023-01-08T12:08:08.470Z,7.64
2023-01-08T12:10:49.669Z,7.64
2023-01-08T12:13:33.478Z,7.62
2023-01-08T12:16:06.458Z,7.62
2023-01-08T12:19:05.661Z,7.66
2023-01-08T12:21:41.700Z,7.73
2023-01-08T12:24:43.691Z,7.74
2023-01-08T12:27:55.371Z,7.73
2023-01-08T12:30:43.720Z,7.74
2023-01-08T12:33:32.491Z,7.73
2023-01-08T12:36:03.704Z,7.69
2023-01-08T12:38:38.164Z,7.70
2023-01-08T12:41:12.021Z,7.74
2023-01-08T12:43:45.047Z,7.78
2023-01-08T12:46:13.904Z,7.81
2023-01-08T12:48:42.543Z,7.83
2023-01-08T12:51:21.125Z,7.83
2023-01-08T12:54:03.699Z,7.82
2023-01-08T12:56:50.772Z,7.78
2023-01-08T12:59:25.166Z,7.76
2023-01-08T13:02:21.214Z,7.77
2023-01-08T13:04:49.397Z,7.81
2023-01-08T13:07:21.134Z,7.85
2023-01-08T13:10:03.885Z,7.87
2023-01-08T13:12:35.704Z,7.86
2023-01-08T13:15:04.745Z,7.84
2023-01-08T13:17:32.862Z,7.84
2023-01-08T13:20:02.324Z,7.81
2023-01-08T13:22:33.148Z,7.77
2023-01-08T13:25:19.119Z,7.73
2023-01-08T13:27:48.316Z,7.72
2023-01-08T13:30:48.537Z,7.73
2023-01-08T13:33:35.464Z,7.74
2023-01-08T13:36:21.107Z,7.73
2023-01-08T13:39:10.712Z,7.71
2023-01-08T13:41:46.067Z,7.65
2023-01-08T13:44:27.210Z,7.59
2023-01-08T13:46:56.974Z,7.53
2023-01-08T13:49:36.890Z,7.48
2023-01-08T13:52:05.614Z,7.47
2023-01-08T13:54:37.673Z,7.48
2023-01-08T13:57:11.475Z,7.50
2023-01-08T13:59:42.612Z,7.53
2023-01-08T14:02:33.297Z,7.54
2023-01-08T14:05:01.866Z,7.52
2023-01-08T14:07:30.796Z,7.50
2023-01-08T14:10:12.844Z,7.46
2023-01-08T14:12:41.241Z,7.41
2023-01-08T14:15:24.654Z,7.37
2023-01-08T14:17:53.227Z,7.32
2023-01-08T14:20:32.087Z,7.30
2023-01-08T14:23:02.250Z,7.31
2023-01-08T14:25:30.316Z,7.32
2023-01-08T14:28:04.415Z,7.33
2023-01-08T14:30:33.181Z,7.33
2023-01-08T14:33:01.783Z,7.30
2023-01-08T14:35:33.617Z,7.24
2023-01-08T14:38:05.735Z,7.21
2023-01-08T14:40:39.045Z,7.15
2023-01-08T14:43:10.237Z,7.09
2023-01-08T14:45:40.434Z,7.07
2023-01-08T14:48:09.693Z,7.05
2023-01-08T14:50:40.461Z,7.05
2023-01-08T14:53:15.451Z,7.02
2023-01-08T14:55:46.473Z,6.98
2023-01-08T14:58:17.332Z,6.94
2023-01-08T15:00:51.292Z,6.90
2023-01-08T15:03:40.206Z,6.85
2023-01-08T15:06:11.599Z,6.79
2023-01-08T15:08:44.472Z,6.76
2023-01-08T15:11:18.439Z,6.73
2023-01-08T15:13:48.262Z,6.72
2023-01-08T15:16:34.422Z,6.75
2023-01-08T15:19:16.006Z,6.77
2023-01-08T15:21:51.299Z,6.77
2023-01-08T15:24:22.166Z,6.74
2023-01-08T15:26:51.090Z,6.71
2023-01-08T15:29:33.515Z,6.67
2023-01-08T15:32:13.683Z,6.61
2023-01-08T15:34:43.125Z,6.57
2023-01-08T15:37:12.002Z,6.55
2023-01-08T15:39:39.965Z,6.55
2023-01-08T15:42:36.357Z,6.57
2023-01-08T15:45:06.101Z,6.58
2023-01-08T15:47:34.315Z,6.58
2023-01-08T15:50:02.403Z,6.55
2023-01-08T15:52:31.350Z,6.51
2023-01-08T15:55:00.021Z,6.48
2023-01-08T15:57:30.613Z,6.43
2023-01-08T15:59:59.247Z,6.39
2023-01-08T16:02:27.232Z,6.36
2023-01-08T16:04:56.747Z,6.36
2023-01-08T16:07:24.744Z,6.34
2023-01-08T16:09:52.782Z,6.33
2023-01-08T16:12:20.752Z,6.30
2023-01-08T16:14:48.690Z,6.27
2023-01-08T16:17:16.585Z,6.22
2023-01-08T16:19:44.887Z,6.19
2023-01-08T16:22:13.047Z,6.15
2023-01-08T16:24:40.987Z,6.12
2023-01-08T16:27:09.992Z,6.10
2023-01-08T16:29:38.004Z,6.11
2023-01-08T16:32:05.929Z,6.13
2023-01-08T16:34:34.612Z,6.15
2023-01-08T16:37:02.580Z,6.16
2023-01-08T16:39:32.262Z,6.17
2023-01-08T16:42:00.785Z,6.15
2023-01-08T16:44:28.985Z,6.13
2023-01-08T16:46:56.879Z,6.08
2023-01-08T16:49:25.014Z,6.04
2023-01-08T16:51:53.718Z,5.99
2023-01-08T16:54:21.942Z,5.99
2023-01-08T16:56:50.247Z,6.00
2023-01-08T16:59:23.779Z,6.02
2023-01-08T17:01:52.706Z,6.03
2023-01-08T17:04:21.213Z,6.02
2023-01-08T17:06:49.157Z,6.03
2023-01-08T17:09:17.264Z,6.04
2023-01-08T17:11:46.051Z,6.01
2023-01-08T17:14:14.103Z,5.95
2023-01-08T17:16:45.384Z,5.93
2023-01-08T17:19:13.621Z,5.89
2023-01-08T17:21:41.663Z,5.89
2023-01-08T17:24:10.040Z,5.90
2023-01-08T17:26:38.075Z,5.92
2023-01-08T17:29:06.069Z,5.94
2023-01-08T17:31:40.092Z,5.95
2023-01-08T17:34:12.405Z,5.93
2023-01-08T17:36:40.556Z,5.91
2023-01-08T17:39:08.605Z,5.89
2023-01-08T17:41:55.818Z,5.84
2023-01-08T17:44:26.583Z,5.80
2023-01-08T17:46:54.573Z,5.76
2023-01-08T17:49:22.553Z,5.74
2023-01-08T17:51:51.842Z,5.74
2023-01-08T17:54:20.226Z,5.76
2023-01-08T17:56:49.406Z,5.79
2023-01-08T17:59:18.399Z,5.80
2023-01-08T18:01:47.385Z,5.82
2023-01-08T18:04:15.809Z,5.82
2023-01-08T18:06:44.042Z,5.81
2023-01-08T18:09:12.878Z,5.78
2023-01-08T18:11:42.585Z,5.77
2023-01-08T18:14:12.430Z,5.78
2023-01-08T18:16:45.565Z,5.82
2023-01-08T18:19:14.341Z,5.87
2023-01-08T18:21:43.837Z,5.90
2023-01-08T18:24:12.124Z,5.91
2023-01-08T18:26:40.463Z,5.93
2023-01-08T18:29:09.064Z,5.92
2023-01-08T18:31:37.383Z,5.92
2023-01-08T18:34:09.180Z,5.90
2023-01-08T18:36:37.563Z,5.86
2023-01-08T18:39:05.735Z,5.85
2023-01-08T18:41:52.376Z,5.86
2023-01-08T18:44:20.671Z,5.88
2023-01-08T18:46:48.884Z,5.89
2023-01-08T18:49:16.783Z,5.88
2023-01-08T18:51:45.568Z,5.89
2023-01-08T18:54:13.518Z,5.87
2023-01-08T18:56:41.434Z,5.84
2023-01-08T18:59:10.751Z,5.82
2023-01-08T19:01:39.183Z,5.81
2023-01-08T19:04:07.506Z,5.79
2023-01-08T19:06:35.710Z,5.83
2023-01-08T19:09:04.029Z,5.85
2023-01-08T19:11:31.891Z,5.87
2023-01-08T19:14:00.469Z,5.89
2023-01-08T19:16:28.499Z,5.90
2023-01-08T19:18:56.844Z,5.90
2023-01-08T19:21:25.375Z,5.90
2023-01-08T19:23:54.331Z,5.87
2023-01-08T19:26:22.413Z,5.84
2023-01-08T19:28:51.084Z,5.80
2023-01-08T19:31:19.402Z,5.79
2023-01-08T19:33:48.659Z,5.81
2023-01-08T19:36:18.778Z,5.85
2023-01-08T19:38:48.006Z,5.89
2023-01-08T19:41:34.816Z,5.93
2023-01-08T19:44:04.814Z,5.94
2023-01-08T19:46:33.046Z,5.94
2023-01-08T19:49:01.946Z,5.92
2023-01-08T19:51:31.865Z,5.90
2023-01-08T19:54:02.809Z,5.86
2023-01-08T19:56:30.805Z,5.85
2023-01-08T19:58:59.224Z,5.86
2023-01-08T20:01:28.312Z,5.88
2023-01-08T20:03:56.826Z,5.87
2023-01-08T20:06:27.303Z,5.86
2023-01-08T20:08:58.564Z,5.85
2023-01-08T20:11:27.978Z,5.83
2023-01-08T20:14:00.627Z,5.79
2023-01-08T20:16:29.905Z,5.75
2023-01-08T20:19:05.193Z,5.72
2023-01-08T20:21:34.587Z,5.72
2023-01-08T20:24:08.683Z,5.72
2023-01-08T20:26:37.549Z,5.73
2023-01-08T20:29:06.530Z,5.74
2023-01-08T20:31:35.361Z,5.73
2023-01-08T20:34:06.414Z,5.70
2023-01-08T20:36:35.000Z,5.67
2023-01-08T20:39:07.972Z,5.64
2023-01-08T20:41:36.076Z,5.60
2023-01-08T20:44:08.076Z,5.58
2023-01-08T20:46:37.578Z,5.57
2023-01-08T20:49:08.543Z,5.57
2023-01-08T20:51:39.718Z,5.54
2023-01-08T20:54:11.305Z,5.51
2023-01-08T20:56:39.601Z,5.47
2023-01-08T20:59:07.539Z,5.42
2023-01-08T21:01:36.553Z,5.36
2023-01-08T21:04:07.010Z,5.30
2023-01-08T21:06:37.727Z,5.24
2023-01-08T21:09:08.616Z,5.19
2023-01-08T21:11:38.731Z,5.15
2023-01-08T21:14:08.179Z,5.13
2023-01-08T21:16:39.848Z,5.10
2023-01-08T21:19:10.462Z,5.06
2023-01-08T21:21:40.688Z,5.02
2023-01-08T21:24:11.499Z,4.97
2023-01-08T21:26:40.192Z,4.92
2023-01-08T21:29:09.237Z,4.86
2023-01-08T21:31:38.380Z,4.82
2023-01-08T21:34:09.080Z,4.79
2023-01-08T21:36:37.176Z,4.77
2023-01-08T21:39:05.211Z,4.78
2023-01-08T21:41:51.900Z,4.79
2023-01-08T21:44:43.176Z,4.78
2023-01-08T21:47:14.786Z,4.74
2023-01-08T21:49:43.028Z,4.70
2023-01-08T21:52:29.643Z,4.66
2023-01-08T21:55:00.513Z,4.58
2023-01-08T21:57:28.651Z,4.53
2023-01-08T21:59:56.787Z,4.50
2023-01-08T22:02:25.192Z,4.48
2023-01-08T22:04:56.380Z,4.49
2023-01-08T22:07:26.072Z,4.48
2023-01-08T22:09:54.411Z,4.50
2023-01-08T22:12:23.453Z,4.48
2023-01-08T22:14:57.495Z,4.43
2023-01-08T22:17:26.603Z,4.38
2023-01-08T22:19:54.713Z,4.32
2023-01-08T22:22:23.064Z,4.25
2023-01-08T22:24:52.522Z,4.22
2023-01-08T22:27:21.201Z,4.19
2023-01-08T22:29:49.318Z,4.17
2023-01-08T22:32:17.336Z,4.21
2023-01-08T22:34:45.789Z,4.23
2023-01-08T22:37:14.092Z,4.22
2023-01-08T22:39:42.099Z,4.20
2023-01-08T22:42:10.057Z,4.15
2023-01-08T22:44:38.175Z,4.11
2023-01-08T22:47:08.506Z,4.07
2023-01-08T22:49:38.009Z,4.05
2023-01-08T22:52:06.811Z,4.06
2023-01-08T22:54:34.926Z,4.07
2023-01-08T22:57:03.225Z,4.07
2023-01-08T22:59:31.156Z,4.09
2023-01-08T23:01:59.243Z,4.07
2023-01-08T23:04:27.432Z,4.04
2023-01-08T23:06:55.665Z,3.99
2023-01-08T23:09:23.755Z,3.94
2023-01-08T23:11:51.515Z,3.91
2023-01-08T23:14:22.672Z,3.93
2023-01-08T23:16:50.603Z,3.96
2023-01-08T23:19:18.593Z,3.96
2023-01-08T23:21:46.791Z,3.93
2023-01-08T23:24:15.026Z,3.92
2023-01-08T23:26:43.294Z,3.90
2023-01-08T23:29:11.469Z,3.86
2023-01-08T23:31:39.632Z,3.82
2023-01-08T23:34:07.731Z,3.80
2023-01-08T23:36:35.876Z,3.81
2023-01-08T23:39:04.644Z,3.81
2023-01-08T23:41:34.860Z,3.83
2023-01-08T23:44:06.450Z,3.83
2023-01-08T23:46:37.146Z,3.81
2023-01-08T23:49:06.448Z,3.78
2023-01-08T23:51:34.489Z,3.76
2023-01-08T23:54:02.913Z,3.75
2023-01-08T23:56:31.791Z,3.73
2023-01-08T23:58:59.923Z,3.75
